Time;durP1;ratioP1;P1;durP2;ratioP2;P2;SDS_P1;SDS_P2;PMS_P1;PMS_P2;Temp;Humidity;BMP_temperature;BMP_pressure;BME280_temperature;BME280_humidity;BME280_pressure;Samples;Min_cycle;Max_cycle;Signal;HPM_P1;HPM_P2
2022/05/27 00:00:54;;;;;;;2.97;1.00;;;;;;;;;;5001222;28;20034;-75
2022/05/27 00:03:23;;;;;;;1.00;1.00;;;;;;;;;;4991931;28;20050;-74
2022/05/27 00:05:48;;;;;;;1.55;1.10;;;;;;;;;;4999162;28;20084;-76
2022/05/27 00:08:15;;;;;;;1.67;1.15;;;;;;;;;;5000978;28;20034;-76
2022/05/27 00:10:41;;;;;;;1.20;1.10;;;;;;;;;;5001423;28;20022;-75
2022/05/27 00:13:06;;;;;;;1.30;1.15;;;;;;;;;;5000728;28;20137;-74
2022/05/27 00:15:32;;;;;;;1.42;1.23;;;;;;;;;;4999943;28;20369;-75
2022/05/27 00:17:57;;;;;;;1.98;1.00;;;;;;;;;;5008984;28;20036;-74
2022/05/27 00:20:24;;;;;;;2.60;1.30;;;;;;;;;;5000751;28;20045;-74
2022/05/27 00:22:49;;;;;;;1.40;1.30;;;;;;;;;;5008116;28;20362;-76
2022/05/27 00:25:14;;;;;;;2.08;1.10;;;;;;;;;;5001289;28;20026;-76
2022/05/27 00:27:40;;;;;;;1.40;1.30;;;;;;;;;;5000043;28;20073;-73
2022/05/27 00:30:05;;;;;;;1.02;1.00;;;;;;;;;;4987819;28;20027;-75
2022/05/27 00:32:30;;;;;;;3.25;1.30;;;;;;;;;;5001620;28;20029;-74
2022/05/27 00:35:03;;;;;;;1.30;0.95;;;;;;;;;;5001025;28;20045;-75
2022/05/27 00:37:28;;;;;;;1.50;1.20;;;;;;;;;;5001253;28;20038;-76
2022/05/27 00:39:55;;;;;;;1.10;0.90;;;;;;;;;;5001086;28;20033;-76
2022/05/27 00:42:23;;;;;;;1.20;1.00;;;;;;;;;;5001256;28;20459;-75
2022/05/27 00:44:50;;;;;;;1.05;0.95;;;;;;;;;;5002491;28;20044;-76
2022/05/27 00:47:17;;;;;;;1.80;1.08;;;;;;;;;;4991732;28;21350;-74
2022/05/27 00:49:49;;;;;;;2.25;1.52;;;;;;;;;;4999722;28;20028;-74
2022/05/27 00:52:18;;;;;;;1.33;1.23;;;;;;;;;;4984807;28;20045;-74
2022/05/27 00:54:45;;;;;;;2.37;1.30;;;;;;;;;;4990267;28;20041;-73
2022/05/27 00:57:14;;;;;;;0.93;0.93;;;;;;;;;;5000236;28;20266;-74
2022/05/27 00:59:46;;;;;;;1.20;0.88;;;;;;;;;;4990497;28;20036;-73
2022/05/27 01:02:12;;;;;;;1.13;1.00;;;;;;;;;;4998711;28;20041;-74
2022/05/27 01:04:38;;;;;;;1.30;1.20;;;;;;;;;;5000387;28;20028;-74
2022/05/27 01:07:05;;;;;;;1.10;1.00;;;;;;;;;;5000309;28;20030;-75
2022/05/27 01:09:31;;;;;;;0.93;0.93;;;;;;;;;;4992633;28;20038;-74
2022/05/27 01:11:59;;;;;;;1.00;0.88;;;;;;;;;;4999495;28;20041;-74
2022/05/27 01:14:28;;;;;;;1.17;1.08;;;;;;;;;;4999636;28;20100;-75
2022/05/27 01:17:06;;;;;;;1.00;0.80;;;;;;;;;;4999586;28;20057;-74
2022/05/27 01:23:06;;;;;;;0.65;0.65;;;;;;;;;;5000741;28;20266;-75
2022/05/27 01:25:58;;;;;;;1.48;0.95;;;;;;;;;;4998825;28;20061;-74
2022/05/27 01:28:29;;;;;;;1.70;1.08;;;;;;;;;;4999624;28;20053;-74
2022/05/27 01:31:00;;;;;;;1.48;1.00;;;;;;;;;;4997715;28;20058;-76
2022/05/27 01:33:49;;;;;;;1.02;0.85;;;;;;;;;;5000972;28;20030;-78
2022/05/27 01:36:35;;;;;;;2.40;1.10;;;;;;;;;;5000140;28;20113;-76
2022/05/27 01:39:09;;;;;;;1.40;1.10;;;;;;;;;;4993488;28;20068;-74
2022/05/27 01:41:52;;;;;;;1.00;0.95;;;;;;;;;;4985263;28;20033;-73
2022/05/27 01:44:32;;;;;;;1.38;1.27;;;;;;;;;;4990985;28;20026;-73
2022/05/27 01:46:59;;;;;;;1.13;1.10;;;;;;;;;;5000179;28;20061;-74
2022/05/27 01:49:29;;;;;;;1.95;1.02;;;;;;;;;;4999820;28;20046;-75
2022/05/27 01:52:06;;;;;;;1.38;1.27;;;;;;;;;;4999886;28;20048;-74
2022/05/27 01:54:46;;;;;;;1.25;1.17;;;;;;;;;;4983487;28;20326;-75
2022/05/27 01:57:15;;;;;;;1.30;1.20;;;;;;;;;;4999520;28;20053;-74
2022/05/27 01:59:59;;;;;;;1.15;1.00;;;;;;;;;;4999320;28;20025;-74
2022/05/27 02:02:27;;;;;;;1.13;0.95;;;;;;;;;;4992252;28;20037;-74
2022/05/27 02:04:59;;;;;;;1.73;1.02;;;;;;;;;;4996086;28;20026;-76
2022/05/27 02:07:47;;;;;;;2.30;1.13;;;;;;;;;;4999996;28;20026;-74
2022/05/27 02:10:15;;;;;;;1.73;0.88;;;;;;;;;;4999585;28;20030;-74
2022/05/27 02:12:45;;;;;;;2.40;1.10;;;;;;;;;;5002822;28;20032;-74
2022/05/27 02:15:15;;;;;;;1.73;1.20;;;;;;;;;;5002823;28;20041;-74
2022/05/27 02:17:44;;;;;;;1.50;1.00;;;;;;;;;;5002546;28;20437;-73
2022/05/27 02:20:16;;;;;;;1.20;1.20;;;;;;;;;;4989677;28;20079;-74
2022/05/27 02:22:45;;;;;;;3.42;1.02;;;;;;;;;;4990244;28;20025;-75
2022/05/27 02:25:20;;;;;;;1.25;1.10;;;;;;;;;;4989865;28;20120;-74
2022/05/27 02:27:54;;;;;;;1.95;1.20;;;;;;;;;;4990122;28;20030;-74
2022/05/27 02:30:23;;;;;;;1.10;1.00;;;;;;;;;;4990236;28;20491;-74
2022/05/27 02:35:07;;;;;;;1.40;1.00;;;;;;;;;;4984439;28;20461;-74
2022/05/27 02:35:39;;;;;;;1.08;0.98;;;;;;;;;;5002221;28;20101;-74
2022/05/27 02:38:06;;;;;;;1.30;1.20;;;;;;;;;;5002877;28;20037;-75
2022/05/27 02:40:54;;;;;;;1.38;1.27;;;;;;;;;;5003909;28;20108;-75
2022/05/27 02:43:29;;;;;;;3.05;1.02;;;;;;;;;;4998269;28;20042;-72
2022/05/27 02:46:05;;;;;;;1.42;1.30;;;;;;;;;;5003141;28;20026;-75
2022/05/27 02:48:42;;;;;;;1.85;1.13;;;;;;;;;;4993447;28;20057;-74
2022/05/27 02:51:14;;;;;;;1.40;1.30;;;;;;;;;;5001855;28;20249;-74
2022/05/27 02:53:59;;;;;;;1.58;1.30;;;;;;;;;;5001695;28;20515;-74
2022/05/27 02:56:32;;;;;;;1.40;1.30;;;;;;;;;;4999400;28;20089;-75
2022/05/27 02:58:57;;;;;;;1.05;0.95;;;;;;;;;;5014924;28;20033;-74
2022/05/27 03:01:22;;;;;;;1.48;1.20;;;;;;;;;;4997068;28;20041;-73
2022/05/27 03:03:48;;;;;;;1.17;1.08;;;;;;;;;;5014986;28;20030;-74
2022/05/27 03:06:26;;;;;;;1.30;1.15;;;;;;;;;;5004741;28;20127;-73
2022/05/27 03:08:56;;;;;;;1.77;1.02;;;;;;;;;;5016300;28;20022;-73
2022/05/27 03:11:33;;;;;;;1.50;1.17;;;;;;;;;;5010878;28;20038;-73
2022/05/27 03:14:02;;;;;;;1.27;1.17;;;;;;;;;;5014967;28;20036;-73
2022/05/27 03:16:46;;;;;;;1.55;1.45;;;;;;;;;;5016051;28;20353;-75
2022/05/27 03:19:30;;;;;;;1.00;1.00;;;;;;;;;;5015030;28;20040;-74
2022/05/27 03:22:14;;;;;;;1.50;1.23;;;;;;;;;;5002501;28;20026;-74
2022/05/27 03:25:14;;;;;;;1.58;1.30;;;;;;;;;;5013170;28;20056;-75
2022/05/27 03:27:42;;;;;;;1.40;1.00;;;;;;;;;;4957258;28;20038;-75
2022/05/27 03:30:11;;;;;;;1.25;1.15;;;;;;;;;;4933786;28;20041;-76
2022/05/27 03:32:56;;;;;;;1.48;1.38;;;;;;;;;;4999959;28;20167;-75
2022/05/27 03:35:44;;;;;;;3.80;1.40;;;;;;;;;;5013497;28;20034;-75
2022/05/27 03:38:19;;;;;;;1.92;1.25;;;;;;;;;;5015390;28;20040;-76
2022/05/27 03:40:52;;;;;;;1.48;1.15;;;;;;;;;;5015440;28;20475;-75
2022/05/27 03:43:18;;;;;;;1.85;1.30;;;;;;;;;;4997634;28;20166;-75
2022/05/27 03:45:48;;;;;;;2.75;1.45;;;;;;;;;;5014374;28;20076;-76
2022/05/27 03:48:14;;;;;;;1.13;1.02;;;;;;;;;;5014877;28;20029;-76
2022/05/27 03:50:39;;;;;;;1.27;1.17;;;;;;;;;;4985529;28;20029;-76
2022/05/27 03:53:06;;;;;;;1.67;1.52;;;;;;;;;;5016798;28;20026;-76
2022/05/27 03:55:32;;;;;;;1.02;0.95;;;;;;;;;;5016518;28;20462;-75
2022/05/27 03:57:58;;;;;;;1.08;1.00;;;;;;;;;;5016229;28;20029;-75
2022/05/27 04:00:23;;;;;;;1.65;1.48;;;;;;;;;;5013927;28;20071;-75
2022/05/27 04:02:48;;;;;;;3.58;1.50;;;;;;;;;;5016492;28;20021;-76
2022/05/27 04:05:18;;;;;;;1.58;1.27;;;;;;;;;;5000169;28;20076;-76
2022/05/27 04:07:44;;;;;;;1.50;1.33;;;;;;;;;;4989594;28;20026;-75
2022/05/27 04:10:11;;;;;;;2.10;1.67;;;;;;;;;;5008704;28;20040;-75
2022/05/27 04:12:38;;;;;;;2.28;1.40;;;;;;;;;;5007870;28;20017;-74
2022/05/27 04:15:06;;;;;;;2.25;1.30;;;;;;;;;;5004981;28;20121;-75
2022/05/27 04:17:31;;;;;;;1.75;1.50;;;;;;;;;;4984976;28;20054;-72
2022/05/27 04:20:17;;;;;;;1.30;1.20;;;;;;;;;;4990610;28;20067;-73
2022/05/27 04:22:42;;;;;;;1.15;1.05;;;;;;;;;;4990387;28;20586;-72
2022/05/27 04:25:08;;;;;;;1.50;1.30;;;;;;;;;;4982094;28;20083;-73
2022/05/27 04:27:34;;;;;;;1.48;1.30;;;;;;;;;;4999534;28;20025;-75
2022/05/27 04:30:01;;;;;;;1.52;1.42;;;;;;;;;;5003459;28;20101;-75
2022/05/27 04:32:27;;;;;;;1.30;1.20;;;;;;;;;;4995875;28;20132;-72
2022/05/27 04:34:53;;;;;;;1.58;1.45;;;;;;;;;;4995910;28;20167;-72
2022/05/27 04:37:19;;;;;;;1.63;1.45;;;;;;;;;;5010068;28;20113;-73
2022/05/27 04:39:45;;;;;;;1.33;1.23;;;;;;;;;;5015763;28;20021;-77
2022/05/27 04:42:10;;;;;;;1.85;1.63;;;;;;;;;;5003452;28;20029;-77
2022/05/27 04:44:36;;;;;;;2.45;1.60;;;;;;;;;;4998574;28;20038;-75
2022/05/27 04:47:01;;;;;;;2.55;1.70;;;;;;;;;;5002912;28;20078;-75
2022/05/27 04:52:13;;;;;;;4.68;1.77;;;;;;;;;;5014640;28;20128;-75
2022/05/27 04:54:40;;;;;;;1.38;1.27;;;;;;;;;;5015552;28;20042;-73
2022/05/27 04:57:05;;;;;;;1.63;1.52;;;;;;;;;;5015654;28;20057;-74
2022/05/27 04:59:35;;;;;;;2.10;1.90;;;;;;;;;;5003386;28;20426;-75
2022/05/27 05:02:03;;;;;;;1.60;1.50;;;;;;;;;;5004407;28;20525;-75
2022/05/27 05:04:28;;;;;;;3.20;1.38;;;;;;;;;;5001046;28;20334;-72
2022/05/27 05:06:54;;;;;;;1.67;1.58;;;;;;;;;;5014779;28;20037;-72
2022/05/27 05:09:20;;;;;;;2.85;1.73;;;;;;;;;;5016194;28;20097;-72
2022/05/27 05:11:48;;;;;;;1.60;1.42;;;;;;;;;;4984108;28;20125;-73
2022/05/27 05:14:13;;;;;;;2.15;1.42;;;;;;;;;;4978351;28;20149;-74
2022/05/27 05:16:41;;;;;;;2.05;1.63;;;;;;;;;;4992365;28;20037;-73
2022/05/27 05:19:07;;;;;;;2.38;1.70;;;;;;;;;;5015298;28;20510;-73
2022/05/27 05:21:33;;;;;;;1.98;1.67;;;;;;;;;;5014720;28;20068;-73
2022/05/27 05:23:59;;;;;;;5.47;1.92;;;;;;;;;;5014564;28;20096;-74
2022/05/27 05:26:24;;;;;;;2.22;1.90;;;;;;;;;;5000278;28;20117;-74
2022/05/27 05:28:50;;;;;;;1.90;1.80;;;;;;;;;;4998589;28;20075;-72
2022/05/27 05:31:17;;;;;;;2.00;1.58;;;;;;;;;;5003125;28;20037;-71
2022/05/27 05:33:43;;;;;;;1.95;1.70;;;;;;;;;;5015007;28;20488;-73
2022/05/27 05:36:09;;;;;;;1.60;1.50;;;;;;;;;;5010153;28;20038;-74
2022/05/27 05:38:34;;;;;;;1.90;1.70;;;;;;;;;;4996804;28;20025;-73
2022/05/27 05:40:59;;;;;;;1.60;1.42;;;;;;;;;;4998498;28;20424;-76
2022/05/27 05:43:25;;;;;;;3.78;2.50;;;;;;;;;;4994833;28;20474;-73
2022/05/27 05:45:50;;;;;;;3.58;1.55;;;;;;;;;;5000601;28;20038;-73
2022/05/27 05:48:15;;;;;;;2.22;1.80;;;;;;;;;;5009153;28;20029;-73
2022/05/27 05:50:41;;;;;;;1.95;1.42;;;;;;;;;;5019617;28;20625;-73
2022/05/27 05:53:06;;;;;;;2.03;1.48;;;;;;;;;;5005218;28;20026;-72
2022/05/27 05:55:35;;;;;;;2.08;1.85;;;;;;;;;;5011130;28;20050;-70
2022/05/27 05:58:01;;;;;;;1.92;1.63;;;;;;;;;;4994005;28;20046;-72
2022/05/27 06:00:26;;;;;;;1.58;1.48;;;;;;;;;;5002581;28;20042;-76
2022/05/27 06:02:52;;;;;;;1.60;1.50;;;;;;;;;;5000999;28;21030;-72
2022/05/27 06:05:18;;;;;;;1.88;1.77;;;;;;;;;;4982339;28;20029;-72
2022/05/27 06:07:43;;;;;;;1.95;1.75;;;;;;;;;;4988853;28;20388;-70
2022/05/27 06:10:09;;;;;;;2.10;1.90;;;;;;;;;;4988161;28;20049;-73
2022/05/27 06:12:36;;;;;;;1.70;1.55;;;;;;;;;;4987029;28;20040;-73
2022/05/27 06:15:02;;;;;;;2.90;2.63;;;;;;;;;;4989013;28;20029;-72
2022/05/27 06:17:28;;;;;;;16.88;12.52;;;;;;;;;;4989611;28;20030;-72
2022/05/27 06:19:53;;;;;;;17.88;12.55;;;;;;;;;;4989020;28;20029;-70
2022/05/27 06:22:18;;;;;;;11.07;7.97;;;;;;;;;;4979189;28;20465;-70
2022/05/27 06:24:44;;;;;;;14.30;10.80;;;;;;;;;;4990618;28;20034;-72
2022/05/27 06:27:09;;;;;;;14.50;10.02;;;;;;;;;;4989361;28;20441;-69
2022/05/27 06:35:03;;;;;;;3.50;2.10;;;;;;;;;;4990090;28;20041;-68
2022/05/27 06:37:28;;;;;;;1.73;1.58;;;;;;;;;;4989861;28;20030;-70
2022/05/27 06:39:54;;;;;;;1.83;1.67;;;;;;;;;;4989486;28;20038;-71
2022/05/27 06:42:19;;;;;;;1.40;1.30;;;;;;;;;;4994393;28;20028;-74
2022/05/27 06:44:45;;;;;;;1.38;1.13;;;;;;;;;;4994359;28;20136;-72
2022/05/27 06:47:11;;;;;;;1.30;1.20;;;;;;;;;;4988437;28;20053;-76
2022/05/27 06:49:37;;;;;;;2.55;1.63;;;;;;;;;;4988058;28;20077;-73
2022/05/27 06:52:03;;;;;;;1.23;1.10;;;;;;;;;;4988510;28;20064;-72
2022/05/27 06:54:28;;;;;;;3.13;1.90;;;;;;;;;;4988965;28;20030;-72
2022/05/27 06:56:54;;;;;;;2.67;2.10;;;;;;;;;;5010071;28;20057;-73
2022/05/27 06:59:20;;;;;;;2.65;2.30;;;;;;;;;;5018387;28;20482;-72
2022/05/27 07:01:46;;;;;;;3.40;1.90;;;;;;;;;;5017742;28;20034;-73
2022/05/27 07:04:11;;;;;;;1.50;1.40;;;;;;;;;;5016953;28;20033;-71
2022/05/27 07:06:38;;;;;;;2.28;2.00;;;;;;;;;;5014551;28;20116;-76
2022/05/27 07:09:07;;;;;;;2.30;1.85;;;;;;;;;;5016517;28;20143;-72
2022/05/27 07:11:33;;;;;;;2.08;1.80;;;;;;;;;;5002469;28;20097;-72
2022/05/27 07:13:58;;;;;;;2.72;1.90;;;;;;;;;;5011841;28;20048;-72
2022/05/27 07:16:24;;;;;;;1.70;1.48;;;;;;;;;;4998172;28;20018;-72
2022/05/27 07:18:49;;;;;;;1.98;1.65;;;;;;;;;;5018288;28;20337;-72
2022/05/27 07:21:15;;;;;;;2.10;1.67;;;;;;;;;;5012780;28;20421;-72
2022/05/27 07:23:40;;;;;;;1.70;1.55;;;;;;;;;;5016264;28;20029;-72
2022/05/27 07:26:05;;;;;;;2.53;1.88;;;;;;;;;;5015865;28;20025;-74
2022/05/27 07:28:31;;;;;;;3.22;1.50;;;;;;;;;;5019619;28;20033;-73
2022/05/27 07:30:56;;;;;;;1.50;1.20;;;;;;;;;;5013881;28;20270;-76
2022/05/27 07:33:22;;;;;;;4.47;1.33;;;;;;;;;;4999478;28;20021;-73
2022/05/27 07:35:48;;;;;;;1.33;1.20;;;;;;;;;;5018733;28;20072;-74
2022/05/27 07:38:13;;;;;;;1.40;1.02;;;;;;;;;;5017699;28;20022;-73
2022/05/27 07:40:39;;;;;;;1.95;1.10;;;;;;;;;;5013352;28;20516;-72
2022/05/27 07:43:06;;;;;;;2.10;1.20;;;;;;;;;;4998981;28;20021;-76
2022/05/27 07:45:32;;;;;;;1.30;0.88;;;;;;;;;;4998998;28;20044;-72
2022/05/27 07:47:57;;;;;;;2.47;1.30;;;;;;;;;;5018884;28;20392;-71
2022/05/27 07:50:23;;;;;;;2.90;2.30;;;;;;;;;;5016154;28;20947;-73
2022/05/27 07:52:48;;;;;;;3.08;2.00;;;;;;;;;;5015741;28;20037;-72
2022/05/27 07:55:13;;;;;;;3.38;2.45;;;;;;;;;;5014603;28;20023;-72
2022/05/27 07:57:42;;;;;;;4.82;2.83;;;;;;;;;;4999104;28;20041;-71
2022/05/27 08:00:09;;;;;;;1.95;1.70;;;;;;;;;;5002760;28;20424;-73
2022/05/27 08:02:34;;;;;;;1.45;1.33;;;;;;;;;;5003215;28;20032;-74
2022/05/27 08:05:00;;;;;;;2.38;1.40;;;;;;;;;;5002693;28;20026;-74
2022/05/27 08:07:26;;;;;;;1.35;1.25;;;;;;;;;;5003617;28;20034;-72
2022/05/27 08:09:51;;;;;;;0.90;0.70;;;;;;;;;;5003763;28;20029;-72
2022/05/27 08:12:17;;;;;;;3.80;0.70;;;;;;;;;;5003467;28;20064;-72
2022/05/27 08:14:43;;;;;;;0.40;0.40;;;;;;;;;;5002007;28;20074;-73
2022/05/27 08:17:09;;;;;;;0.98;0.80;;;;;;;;;;5001904;28;20753;-72
2022/05/27 08:19:34;;;;;;;0.57;0.57;;;;;;;;;;5002379;28;20081;-77
2022/05/27 08:22:00;;;;;;;0.70;0.63;;;;;;;;;;5003036;28;20026;-72
2022/05/27 08:24:25;;;;;;;0.47;0.32;;;;;;;;;;5002874;28;20025;-76
2022/05/27 08:26:50;;;;;;;0.65;0.55;;;;;;;;;;5002247;28;20025;-75
2022/05/27 08:29:16;;;;;;;0.45;0.45;;;;;;;;;;5002933;28;20068;-73
2022/05/27 08:31:41;;;;;;;0.45;0.45;;;;;;;;;;5002969;28;20104;-73
2022/05/27 08:39:36;;;;;;;0.43;0.40;;;;;;;;;;4988212;28;20049;-74
2022/05/27 08:42:03;;;;;;;0.65;0.65;;;;;;;;;;4991338;28;20745;-78
2022/05/27 08:44:40;;;;;;;1.30;0.65;;;;;;;;;;4989229;28;20084;-70
2022/05/27 08:47:05;;;;;;;0.55;0.55;;;;;;;;;;4999201;28;20033;-72
2022/05/27 08:49:35;;;;;;;2.80;1.08;;;;;;;;;;5001743;28;20107;-75
2022/05/27 08:52:05;;;;;;;1.33;0.70;;;;;;;;;;5001404;28;20041;-75
2022/05/27 08:54:35;;;;;;;0.40;0.40;;;;;;;;;;4994035;28;20034;-71
2022/05/27 08:59:54;;;;;;;0.60;0.52;;;;;;;;;;5014140;28;20032;-71
2022/05/27 09:02:27;;;;;;;0.82;0.43;;;;;;;;;;5011395;28;20116;-77
2022/05/27 09:05:02;;;;;;;0.65;0.45;;;;;;;;;;4997414;28;20062;-74
2022/05/27 09:07:41;;;;;;;0.88;0.57;;;;;;;;;;5004349;28;20079;-74
2022/05/27 09:10:13;;;;;;;1.85;0.90;;;;;;;;;;5003244;28;20032;-74
2022/05/27 09:12:44;;;;;;;0.55;0.55;;;;;;;;;;5003234;28;20045;-72
2022/05/27 09:15:12;;;;;;;0.77;0.40;;;;;;;;;;5013397;28;20136;-73
2022/05/27 09:17:38;;;;;;;0.60;0.45;;;;;;;;;;5012852;28;20461;-74
2022/05/27 09:20:06;;;;;;;0.70;0.60;;;;;;;;;;5010491;28;20042;-73
2022/05/27 09:22:32;;;;;;;0.40;0.40;;;;;;;;;;5014128;28;20479;-72
2022/05/27 09:25:05;;;;;;;0.60;0.60;;;;;;;;;;5010099;28;20167;-71
2022/05/27 09:27:37;;;;;;;1.45;0.57;;;;;;;;;;4999966;28;20260;-71
2022/05/27 09:30:09;;;;;;;0.73;0.50;;;;;;;;;;4996012;28;20030;-72
2022/05/27 09:32:55;;;;;;;1.10;0.50;;;;;;;;;;5013815;28;20091;-72
2022/05/27 09:35:25;;;;;;;0.65;0.43;;;;;;;;;;5007520;28;20421;-70
2022/05/27 09:37:51;;;;;;;1.10;0.50;;;;;;;;;;5017507;28;20049;-78
2022/05/27 09:40:19;;;;;;;0.55;0.50;;;;;;;;;;5005756;28;20030;-71
2022/05/27 09:42:54;;;;;;;0.40;0.40;;;;;;;;;;4998905;28;20456;-73
2022/05/27 09:45:19;;;;;;;1.85;0.80;;;;;;;;;;5003800;28;20025;-71
2022/05/27 09:47:45;;;;;;;0.77;0.70;;;;;;;;;;5004519;28;20013;-71
2022/05/27 09:50:22;;;;;;;0.65;0.50;;;;;;;;;;5003457;28;20021;-71
2022/05/27 09:52:48;;;;;;;0.95;0.80;;;;;;;;;;5006484;28;20051;-75
2022/05/27 09:55:28;;;;;;;0.60;0.60;;;;;;;;;;5002261;28;21091;-73
2022/05/27 09:57:58;;;;;;;1.00;0.57;;;;;;;;;;5004408;28;21131;-77
2022/05/27 10:00:48;;;;;;;1.02;0.60;;;;;;;;;;5002194;28;20060;-72
2022/05/27 10:03:28;;;;;;;0.60;0.60;;;;;;;;;;5015153;28;20052;-74
2022/05/27 10:06:00;;;;;;;0.70;0.60;;;;;;;;;;4997733;28;20029;-74
2022/05/27 10:08:34;;;;;;;1.98;0.70;;;;;;;;;;5017223;28;20095;-73
2022/05/27 10:11:10;;;;;;;1.83;0.65;;;;;;;;;;5017350;28;20099;-73
2022/05/27 10:13:35;;;;;;;0.60;0.60;;;;;;;;;;4997143;28;20035;-74
2022/05/27 10:16:08;;;;;;;1.40;0.90;;;;;;;;;;5014014;28;20336;-72
2022/05/27 10:18:33;;;;;;;1.02;0.90;;;;;;;;;;5015138;28;20025;-75
2022/05/27 10:21:01;;;;;;;2.20;1.23;;;;;;;;;;5006442;28;20033;-72
2022/05/27 10:23:28;;;;;;;0.77;0.60;;;;;;;;;;5011521;28;20025;-76
2022/05/27 10:25:54;;;;;;;0.70;0.70;;;;;;;;;;5004891;28;20038;-75
2022/05/27 10:28:30;;;;;;;1.67;0.80;;;;;;;;;;5004968;28;20030;-76
2022/05/27 10:30:57;;;;;;;1.77;0.77;;;;;;;;;;5016680;28;20132;-75
2022/05/27 10:33:25;;;;;;;1.05;0.70;;;;;;;;;;5005172;28;20483;-75
2022/05/27 10:35:51;;;;;;;1.42;0.93;;;;;;;;;;5018663;28;20030;-74
2022/05/27 10:38:19;;;;;;;1.15;0.93;;;;;;;;;;5019377;28;20022;-76
2022/05/27 10:40:45;;;;;;;4.70;0.95;;;;;;;;;;5000078;28;20053;-78
2022/05/27 10:43:29;;;;;;;1.05;0.95;;;;;;;;;;5018808;28;21011;-78
2022/05/27 10:45:55;;;;;;;1.30;0.70;;;;;;;;;;5006617;28;20021;-76
2022/05/27 10:48:39;;;;;;;1.88;0.80;;;;;;;;;;5007905;28;20068;-77
2022/05/27 10:51:20;;;;;;;1.30;1.02;;;;;;;;;;4997019;28;20116;-76
2022/05/27 10:54:04;;;;;;;2.58;1.00;;;;;;;;;;5012782;28;20437;-77
2022/05/27 11:02:04;;;;;;;1.00;0.90;;;;;;;;;;5015506;28;20058;-77
2022/05/27 11:02:39;;;;;;;1.10;1.00;;;;;;;;;;5013809;28;20068;-77
2022/05/27 11:05:27;;;;;;;0.98;0.70;;;;;;;;;;5015316;28;20072;-76
2022/05/27 11:08:01;;;;;;;1.92;0.82;;;;;;;;;;5006531;28;20334;-77
2022/05/27 11:10:33;;;;;;;2.47;1.30;;;;;;;;;;5014326;28;20076;-77
2022/05/27 11:16:17;;;;;;;1.23;0.82;;;;;;;;;;5009125;28;20041;-78
2022/05/27 11:19:01;;;;;;;1.25;0.93;;;;;;;;;;5005074;28;20050;-75
2022/05/27 11:21:32;;;;;;;2.08;1.13;;;;;;;;;;5017066;28;20033;-77
2022/05/27 11:24:04;;;;;;;1.10;1.00;;;;;;;;;;5016379;28;20017;-76
2022/05/27 11:26:32;;;;;;;1.73;1.02;;;;;;;;;;5017386;28;20099;-77
2022/05/27 11:29:17;;;;;;;2.97;0.90;;;;;;;;;;5015499;28;21216;-78
2022/05/27 11:31:52;;;;;;;1.10;0.90;;;;;;;;;;5015859;28;20045;-77
2022/05/27 11:34:17;;;;;;;1.05;0.90;;;;;;;;;;5016841;28;20029;-78
2022/05/27 11:36:45;;;;;;;1.55;1.00;;;;;;;;;;5017681;28;20621;-77
2022/05/27 11:39:25;;;;;;;1.88;1.20;;;;;;;;;;5016586;28;20014;-78
2022/05/27 11:41:50;;;;;;;2.20;1.27;;;;;;;;;;5017594;28;20112;-76
2022/05/27 11:44:16;;;;;;;1.53;0.93;;;;;;;;;;5017684;28;20010;-79
2022/05/27 11:46:47;;;;;;;1.13;0.80;;;;;;;;;;5018705;28;20254;-76
2022/05/27 11:49:15;;;;;;;1.48;0.98;;;;;;;;;;5013835;28;20369;-78
2022/05/27 11:51:59;;;;;;;0.88;0.80;;;;;;;;;;5016006;28;20048;-78
2022/05/27 11:54:33;;;;;;;1.35;0.90;;;;;;;;;;5016263;28;20037;-77
2022/05/27 11:57:04;;;;;;;1.00;0.80;;;;;;;;;;5014862;28;20141;-78
2022/05/27 11:59:36;;;;;;;1.98;1.25;;;;;;;;;;5017327;28;20068;-78
2022/05/27 12:02:04;;;;;;;0.93;0.90;;;;;;;;;;5013473;28;20049;-77
2022/05/27 12:04:40;;;;;;;1.38;1.05;;;;;;;;;;4998773;28;20021;-78
2022/05/27 12:07:13;;;;;;;2.25;1.00;;;;;;;;;;5014604;28;20026;-76
2022/05/27 12:09:45;;;;;;;2.08;0.93;;;;;;;;;;5014449;28;20025;-77
2022/05/27 12:12:14;;;;;;;1.20;0.90;;;;;;;;;;5011990;28;20061;-77
2022/05/27 12:14:39;;;;;;;;;;;;;;;;;;5014085;28;20051;-76
2022/05/27 12:17:27;;;;;;;0.97;0.70;;;;;;;;;;5017980;28;19913;-77
2022/05/27 12:19:58;;;;;;;1.85;1.40;;;;;;;;;;5017604;28;20064;-76
2022/05/27 12:22:30;;;;;;;1.65;1.00;;;;;;;;;;5016032;28;20112;-78
2022/05/27 12:25:01;;;;;;;4.40;0.90;;;;;;;;;;5015933;28;20068;-78
2022/05/27 12:27:27;;;;;;;4.13;0.93;;;;;;;;;;5014770;28;20017;-76
2022/05/27 12:29:53;;;;;;;1.23;1.00;;;;;;;;;;5016387;28;20040;-77
2022/05/27 12:32:22;;;;;;;0.90;0.68;;;;;;;;;;5012826;28;20105;-76
2022/05/27 12:34:48;;;;;;;;;;;;;;;;;;5014927;28;20053;-77
2022/05/27 12:37:13;;;;;;;2.28;1.20;;;;;;;;;;5005000;28;20045;-76
2022/05/27 12:39:40;;;;;;;2.93;1.70;;;;;;;;;;5001364;28;20406;-76
2022/05/27 12:42:16;;;;;;;1.58;1.25;;;;;;;;;;4993984;28;20267;-76
2022/05/27 12:44:42;;;;;;;2.13;1.10;;;;;;;;;;5007261;28;20033;-76
2022/05/27 12:47:15;;;;;;;1.10;1.00;;;;;;;;;;4994724;28;20088;-78
2022/05/27 12:49:42;;;;;;;2.40;1.25;;;;;;;;;;5001422;28;20415;-77
2022/05/27 12:52:34;;;;;;;2.40;1.27;;;;;;;;;;5012387;28;20045;-76
2022/05/27 12:54:59;;;;;;;3.40;1.20;;;;;;;;;;4983264;28;20029;-77
2022/05/27 13:03:08;;;;;;;2.88;1.10;;;;;;;;;;5014354;28;20036;-79
2022/05/27 13:05:52;;;;;;;1.83;1.00;;;;;;;;;;5014496;28;20021;-78
2022/05/27 13:08:19;;;;;;;1.23;1.00;;;;;;;;;;5016390;28;20025;-77
2022/05/27 13:10:47;;;;;;;3.05;1.30;;;;;;;;;;5016085;28;20120;-77
2022/05/27 13:13:13;;;;;;;1.25;1.10;;;;;;;;;;5015864;28;20033;-77
2022/05/27 13:15:53;;;;;;;2.08;0.90;;;;;;;;;;5014053;28;20025;-78
2022/05/27 13:18:25;;;;;;;2.40;0.77;;;;;;;;;;5015747;28;20041;-76
2022/05/27 13:20:56;;;;;;;1.77;1.20;;;;;;;;;;5016327;28;20021;-78
2022/05/27 13:23:24;;;;;;;1.20;1.00;;;;;;;;;;5013210;28;20042;-78
2022/05/27 13:25:58;;;;;;;1.20;1.10;;;;;;;;;;5015514;28;20086;-77
2022/05/27 13:28:44;;;;;;;1.90;1.30;;;;;;;;;;5012676;28;20026;-79
2022/05/27 13:31:11;;;;;;;1.88;1.25;;;;;;;;;;4984573;28;20049;-78
2022/05/27 13:33:48;;;;;;;1.60;1.25;;;;;;;;;;5014591;28;20013;-77
2022/05/27 13:36:17;;;;;;;1.48;1.20;;;;;;;;;;4999668;28;20033;-76
2022/05/27 13:38:47;;;;;;;1.50;1.08;;;;;;;;;;4997483;28;20025;-78
2022/05/27 13:41:16;;;;;;;2.80;1.30;;;;;;;;;;5015026;28;20033;-77
2022/05/27 13:43:41;;;;;;;;;;;;;;;;;;5014430;28;20044;-76
2022/05/27 13:46:15;;;;;;;1.73;1.10;;;;;;;;;;5016949;28;19913;-77
2022/05/27 13:48:40;;;;;;;1.02;0.90;;;;;;;;;;5012870;28;20029;-79
2022/05/27 13:51:08;;;;;;;0.97;0.83;;;;;;;;;;5015443;28;20033;-77
2022/05/27 13:53:35;;;;;;;2.72;1.20;;;;;;;;;;5012007;28;20283;-76
2022/05/27 13:56:10;;;;;;;3.55;1.30;;;;;;;;;;5010150;28;20081;-77
2022/05/27 13:58:44;;;;;;;1.70;0.95;;;;;;;;;;5000882;28;20057;-77
2022/05/27 14:01:10;;;;;;;3.00;1.23;;;;;;;;;;5002018;28;20117;-77
2022/05/27 14:03:59;;;;;;;1.52;1.08;;;;;;;;;;5000880;28;20100;-76
2022/05/27 14:06:30;;;;;;;2.40;1.27;;;;;;;;;;4987791;28;20037;-77
2022/05/27 14:08:55;;;;;;;1.35;1.10;;;;;;;;;;5004522;28;20056;-78
2022/05/27 14:11:28;;;;;;;1.38;0.88;;;;;;;;;;5005912;28;20501;-77
2022/05/27 14:13:55;;;;;;;2.10;1.77;;;;;;;;;;5004302;28;20080;-76
2022/05/27 14:16:24;;;;;;;1.50;1.05;;;;;;;;;;5005344;28;20018;-76
2022/05/27 14:18:51;;;;;;;4.47;1.23;;;;;;;;;;4988987;28;20049;-79
2022/05/27 14:24:01;;;;;;;2.60;1.10;;;;;;;;;;4995727;28;20080;-77
2022/05/27 14:26:27;;;;;;;2.83;1.00;;;;;;;;;;5003992;28;21133;-76
2022/05/27 14:28:54;;;;;;;2.92;1.15;;;;;;;;;;5004502;28;20030;-77
2022/05/27 14:31:24;;;;;;;1.65;1.17;;;;;;;;;;5003943;28;20115;-76
2022/05/27 14:33:51;;;;;;;1.10;0.82;;;;;;;;;;4996494;28;20022;-78
2022/05/27 14:36:18;;;;;;;1.13;1.02;;;;;;;;;;4989845;28;20118;-76
2022/05/27 14:38:44;;;;;;;3.58;1.25;;;;;;;;;;4990153;28;20087;-76
2022/05/27 14:41:32;;;;;;;1.10;1.00;;;;;;;;;;4989478;28;20404;-74
2022/05/27 14:43:58;;;;;;;;;;;;;;;;;;4978496;28;20052;-76
2022/05/27 14:46:24;;;;;;;1.30;0.93;;;;;;;;;;4990075;28;20336;-73
2022/05/27 14:48:55;;;;;;;0.90;0.90;;;;;;;;;;4989117;28;20426;-77
2022/05/27 14:51:23;;;;;;;2.28;1.23;;;;;;;;;;4989790;28;20068;-77
2022/05/27 14:53:50;;;;;;;2.65;0.90;;;;;;;;;;4981466;28;20029;-75
2022/05/27 14:56:26;;;;;;;1.67;1.20;;;;;;;;;;4996946;28;20453;-76
2022/05/27 14:58:55;;;;;;;2.58;1.38;;;;;;;;;;5004859;28;20514;-75
2022/05/27 15:01:28;;;;;;;1.60;1.05;;;;;;;;;;5003008;28;20120;-74
2022/05/27 15:04:12;;;;;;;2.13;1.38;;;;;;;;;;5004285;28;20029;-74
2022/05/27 15:06:38;;;;;;;1.42;1.08;;;;;;;;;;5000405;28;20441;-77
2022/05/27 15:09:15;;;;;;;2.75;1.05;;;;;;;;;;4989537;28;20030;-76
2022/05/27 15:11:41;;;;;;;2.90;1.20;;;;;;;;;;4984212;28;20420;-75
2022/05/27 15:14:28;;;;;;;1.73;1.08;;;;;;;;;;4988508;28;20037;-76
2022/05/27 15:17:01;;;;;;;1.98;0.98;;;;;;;;;;4988349;28;20025;-78
2022/05/27 15:19:28;;;;;;;1.95;0.90;;;;;;;;;;4987924;28;20030;-75
2022/05/27 15:22:05;;;;;;;2.70;1.15;;;;;;;;;;4974644;28;20453;-75
2022/05/27 15:24:31;;;;;;;4.00;1.33;;;;;;;;;;4980247;28;20108;-76
2022/05/27 15:35:14;;;;;;;1.35;1.08;;;;;;;;;;4986302;28;20386;-76
2022/05/27 15:37:40;;;;;;;2.38;1.10;;;;;;;;;;4973780;28;20064;-76
2022/05/27 15:40:05;;;;;;;1.58;1.23;;;;;;;;;;4976727;28;20101;-76
2022/05/27 15:42:41;;;;;;;1.77;1.10;;;;;;;;;;4971007;28;20069;-77